Time;durP1;ratioP1;P1;durP2;ratioP2;P2;SDS_P1;SDS_P2;PMS_P1;PMS_P2;Temp;Humidity;BMP_temperature;BMP_pressure;BME280_temperature;BME280_humidity;BME280_pressure;Samples;Min_cycle;Max_cycle;Signal;HPM_P1;HPM_P2
2023/10/17 00:00:17;;;;;;;3.17;1.40;;;;;;;6.62;82.66;100317.81;1685185;85;21087;-69
2023/10/17 00:02:43;;;;;;;2.95;1.50;;;;;;;6.60;82.64;100318.49;1682103;85;21451;-69
2023/10/17 00:05:14;;;;;;;5.40;1.90;;;;;;;6.59;82.73;100319.52;1669396;86;21074;-68
2023/10/17 00:07:45;;;;;;;2.22;1.45;;;;;;;6.59;82.72;100322.23;1686012;85;21090;-69
2023/10/17 00:10:18;;;;;;;3.08;1.30;;;;;;;6.57;82.74;100317.48;1690601;85;21079;-68
2023/10/17 00:12:50;;;;;;;3.90;1.62;;;;;;;6.56;82.80;100320.38;1685716;85;21127;-69
2023/10/17 00:15:28;;;;;;;3.35;1.65;;;;;;;6.54;82.90;100328.72;1661972;86;21525;-69
2023/10/17 00:18:11;;;;;;;2.87;1.37;;;;;;;6.52;82.95;100325.32;1686594;85;21043;-69
2023/10/17 00:20:37;;;;;;;2.40;1.40;;;;;;;6.50;83.10;100328.73;1676338;85;21052;-69
2023/10/17 00:23:08;;;;;;;4.75;1.30;;;;;;;6.47;83.19;100327.68;1661679;86;21467;-70
2023/10/17 00:25:37;;;;;;;5.55;1.50;;;;;;;6.48;83.38;100332.10;1690643;85;21050;-69
2023/10/17 00:28:09;;;;;;;3.42;1.60;;;;;;;6.48;83.39;100324.45;1695374;85;21055;-69
2023/10/17 00:30:38;;;;;;;6.05;1.42;;;;;;;6.47;83.44;100331.77;1674011;85;21510;-69
2023/10/17 00:33:12;;;;;;;4.40;1.82;;;;;;;6.45;83.52;100332.95;1666475;86;21475;-68
2023/10/17 00:35:48;;;;;;;5.03;1.90;;;;;;;6.42;83.64;100331.94;1660751;86;21058;-68
2023/10/17 00:38:17;;;;;;;5.60;1.98;;;;;;;6.40;83.78;100332.12;1660834;85;21062;-69
2023/10/17 00:40:51;;;;;;;4.37;2.10;;;;;;;6.38;83.89;100334.16;1666590;86;21070;-70
2023/10/17 00:43:20;;;;;;;3.67;1.60;;;;;;;6.39;84.03;100340.45;1666560;86;21047;-68
2023/10/17 00:45:48;;;;;;;4.95;2.00;;;;;;;6.38;84.17;100339.60;1666623;86;21070;-69
2023/10/17 00:48:20;;;;;;;2.92;1.67;;;;;;;6.39;84.27;100338.58;1666398;86;21097;-69
2023/10/17 00:50:56;;;;;;;3.35;1.72;;;;;;;6.39;84.33;100342.66;1666516;86;21744;-69
2023/10/17 00:53:22;;;;;;;4.95;1.98;;;;;;;6.41;84.44;100347.42;1638142;86;21053;-69
2023/10/17 00:55:52;;;;;;;5.53;2.00;;;;;;;6.41;84.51;100347.93;1660895;86;21038;-70
2023/10/17 00:58:24;;;;;;;3.58;1.77;;;;;;;6.42;84.59;100348.27;1666410;86;21098;-69
2023/10/17 01:00:59;;;;;;;4.72;2.00;;;;;;;6.40;84.62;100347.59;1666559;86;21058;-69
2023/10/17 01:03:29;;;;;;;3.47;1.57;;;;;;;6.39;84.71;100350.83;1666527;86;21066;-69
2023/10/17 01:06:13;;;;;;;4.00;2.08;;;;;;;6.38;84.78;100347.77;1666442;86;21062;-68
2023/10/17 01:08:39;;;;;;;3.95;1.92;;;;;;;6.36;84.84;100352.53;1664904;86;21083;-69
2023/10/17 01:10:59;;;;;;;3.70;1.92;;;;;;;6.33;84.91;100348.28;1659976;85;21087;-69
2023/10/17 01:13:28;;;;;;;5.35;1.92;;;;;;;6.31;85.02;100350.83;1666644;86;21074;-69
2023/10/17 01:15:57;;;;;;;4.83;1.87;;;;;;;6.30;85.10;100354.58;1666604;86;21055;-69
2023/10/17 01:18:31;;;;;;;4.60;1.75;;;;;;;6.29;85.14;100363.77;1666729;85;21440;-68
2023/10/17 01:20:57;;;;;;;4.75;1.95;;;;;;;6.31;85.23;100350.83;1661005;85;21074;-68
2023/10/17 01:23:29;;;;;;;2.83;1.80;;;;;;;6.32;85.31;100364.27;1666514;86;21514;-70
2023/10/17 01:26:04;;;;;;;3.65;1.50;;;;;;;6.33;85.27;100363.76;1666688;86;21059;-69
2023/10/17 01:28:30;;;;;;;2.87;1.50;;;;;;;6.31;85.35;100365.80;1666472;86;21059;-69
2023/10/17 01:31:01;;;;;;;3.95;1.47;;;;;;;6.32;85.42;100360.70;1662712;86;21121;-69
2023/10/17 01:33:32;;;;;;;4.97;1.65;;;;;;;6.32;85.47;100371.58;1660903;86;21042;-68
2023/10/17 01:36:04;;;;;;;3.33;1.72;;;;;;;6.30;85.44;100372.27;1633396;88;21102;-69
2023/10/17 01:38:33;;;;;;;4.22;2.10;;;;;;;6.27;85.53;100380.77;1633322;88;21531;-68
2023/10/17 01:41:03;;;;;;;2.67;1.90;;;;;;;6.24;85.66;100382.47;1672985;86;21489;-69
2023/10/17 01:43:36;;;;;;;4.60;1.85;;;;;;;6.25;85.78;100388.25;1633247;86;21151;-69
2023/10/17 01:46:05;;;;;;;3.75;1.77;;;;;;;6.25;85.92;100393.69;1633198;88;21071;-67
2023/10/17 01:48:35;;;;;;;3.65;1.90;;;;;;;6.26;86.05;100398.11;1666901;86;21485;-69
2023/10/17 01:51:06;;;;;;;5.25;1.80;;;;;;;6.28;86.19;100393.34;1630778;88;21585;-68
2023/10/17 01:53:38;;;;;;;5.28;1.70;;;;;;;6.31;86.22;100395.22;1633352;86;21043;-69
2023/10/17 01:56:20;;;;;;;3.92;1.90;;;;;;;6.35;86.18;100401.17;1672824;84;21122;-69
2023/10/17 01:58:49;;;;;;;3.17;1.80;;;;;;;6.38;86.16;100401.34;1633345;88;21199;-70
2023/10/17 02:01:31;;;;;;;4.22;2.20;;;;;;;6.40;86.17;100401.51;1633296;88;21491;-69
2023/10/17 02:04:04;;;;;;;4.05;1.75;;;;;;;6.44;86.09;100404.23;1671729;86;21091;-68
2023/10/17 02:06:34;;;;;;;3.30;1.87;;;;;;;6.47;86.03;100400.31;1659149;85;21134;-68
2023/10/17 02:09:24;;;;;;;4.60;2.00;;;;;;;6.49;85.98;100402.36;1660776;86;21046;-69
2023/10/17 02:11:56;;;;;;;3.67;1.90;;;;;;;6.50;85.79;100402.70;1633204;88;21139;-68
2023/10/17 02:14:23;;;;;;;4.08;1.75;;;;;;;6.49;85.56;100396.41;1633192;86;21087;-68
2023/10/17 02:16:52;;;;;;;3.17;1.80;;;;;;;6.47;85.47;100403.89;1607296;88;21138;-68
2023/10/17 02:19:32;;;;;;;2.40;1.60;;;;;;;6.45;85.46;100410.02;1672932;84;21090;-68
2023/10/17 02:21:56;;;;;;;3.45;2.10;;;;;;;6.43;85.51;100399.81;1632628;88;21100;-69
2023/10/17 02:24:29;;;;;;;4.47;1.95;;;;;;;6.44;85.55;100417.84;1633216;88;21538;-69
2023/10/17 02:26:56;;;;;;;3.30;1.90;;;;;;;6.43;85.62;100419.37;1669672;86;21042;-69
2023/10/17 02:29:29;;;;;;;3.72;1.77;;;;;;;6.41;85.66;100418.69;1665751;86;21703;-67
2023/10/17 02:31:58;;;;;;;3.72;1.95;;;;;;;6.42;85.71;100423.11;1690587;83;21074;-67
2023/10/17 02:34:29;;;;;;;2.77;1.92;;;;;;;6.42;85.75;100421.23;1690699;84;21074;-69
2023/10/17 02:37:03;;;;;;;6.15;2.17;;;;;;;6.45;85.72;100429.06;1659601;85;21044;-68
2023/10/17 02:39:28;;;;;;;4.22;1.90;;;;;;;6.45;85.70;100427.70;1656363;85;21043;-69
2023/10/17 02:42:10;;;;;;;3.67;1.80;;;;;;;6.45;85.71;100430.42;1659739;86;21071;-69
2023/10/17 02:44:43;;;;;;;3.20;1.82;;;;;;;6.47;85.79;100441.99;1659755;85;21012;-69
2023/10/17 02:47:12;;;;;;;3.45;1.92;;;;;;;6.47;85.69;100432.47;1659593;86;21483;-70
2023/10/17 02:49:47;;;;;;;6.50;2.15;;;;;;;6.46;85.64;100433.48;1656680;87;21091;-70
2023/10/17 02:52:17;;;;;;;3.27;1.90;;;;;;;6.46;85.64;100434.84;1656651;87;21030;-70
2023/10/17 02:54:56;;;;;;;4.65;2.22;;;;;;;6.46;85.65;100440.30;1659574;86;21483;-68
2023/10/17 02:57:27;;;;;;;3.90;2.05;;;;;;;6.46;85.63;100440.80;1659604;86;21564;-68
2023/10/17 03:00:07;;;;;;;4.58;1.77;;;;;;;6.46;85.65;100441.65;1656602;85;21019;-69
2023/10/17 03:02:37;;;;;;;2.65;2.08;;;;;;;6.45;85.71;100440.46;1658631;86;21479;-68
2023/10/17 03:05:05;;;;;;;3.10;2.08;;;;;;;6.45;85.83;100453.56;1658731;86;21443;-69
2023/10/17 03:07:30;;;;;;;4.30;2.08;;;;;;;6.45;86.00;100442.67;1659111;85;21449;-68
2023/10/17 03:10:02;;;;;;;3.22;2.00;;;;;;;6.48;86.03;100442.84;1631532;88;21093;-68
2023/10/17 03:12:40;;;;;;;4.80;2.10;;;;;;;6.48;86.05;100445.05;1700695;84;21106;-69
2023/10/17 03:17:32;;;;;;;6.87;2.20;;;;;;;6.49;85.99;100450.84;1660037;86;21456;-69
2023/10/17 03:20:01;;;;;;;3.67;2.22;;;;;;;6.50;85.96;100454.41;1656732;86;21515;-69
2023/10/17 03:22:30;;;;;;;4.00;2.30;;;;;;;6.51;85.91;100453.42;1660022;86;21110;-69
2023/10/17 03:25:01;;;;;;;5.47;2.80;;;;;;;6.52;85.86;100456.48;1660023;86;21075;-68
2023/10/17 03:30:10;;;;;;;5.28;2.30;;;;;;;6.54;85.71;100465.33;1659721;84;21533;-69
2023/10/17 03:32:52;;;;;;;4.05;2.52;;;;;;;6.52;85.58;100470.09;1698756;84;21107;-68
2023/10/17 03:35:20;;;;;;;5.42;2.12;;;;;;;6.51;85.46;100467.03;1689025;85;22052;-68
2023/10/17 03:37:40;;;;;;;5.62;2.22;;;;;;;6.46;85.39;100468.88;1658017;86;21075;-69
2023/10/17 03:42:53;;;;;;;3.70;2.25;;;;;;;6.40;85.41;100475.50;1659660;86;21047;-69
2023/10/17 03:45:34;;;;;;;5.78;2.45;;;;;;;6.37;85.43;100479.41;1700370;84;21027;-69
2023/10/17 03:48:04;;;;;;;4.55;2.52;;;;;;;6.35;85.50;100485.53;1658340;86;21068;-67
2023/10/17 03:53:24;;;;;;;4.17;2.50;;;;;;;6.34;85.62;100489.27;1620537;85;21113;-69
2023/10/17 03:55:48;;;;;;;4.78;2.40;;;;;;;6.31;85.66;100493.69;1649329;86;21242;-69
2023/10/17 04:00:53;;;;;;;4.17;2.27;;;;;;;6.25;85.71;100497.08;1679965;85;21520;-68
2023/10/17 04:03:31;;;;;;;5.03;2.40;;;;;;;6.26;85.85;100496.06;1690692;85;21594;-68
2023/10/17 04:13:56;;;;;;;6.83;2.90;;;;;;;6.17;85.90;100514.75;1690757;85;21058;-69
2023/10/17 04:16:38;;;;;;;3.52;2.35;;;;;;;6.13;85.94;100517.46;1690588;85;21475;-69
2023/10/17 04:19:20;;;;;;;5.47;2.55;;;;;;;6.12;86.05;100521.20;1659679;86;21016;-69
2023/10/17 04:22:14;;;;;;;5.67;2.98;;;;;;;6.10;86.19;100524.59;1656526;86;21043;-70
2023/10/17 04:24:34;;;;;;;6.58;2.90;;;;;;;6.11;86.29;100522.22;1649454;85;21478;-69
2023/10/17 04:27:18;;;;;;;6.85;2.67;;;;;;;6.12;86.37;100529.36;1659579;86;21019;-69
2023/10/17 04:29:38;;;;;;;6.15;2.37;;;;;;;6.14;86.35;100532.77;1658394;86;21032;-69
2023/10/17 04:32:13;;;;;;;5.37;2.62;;;;;;;6.17;86.23;100540.59;1661856;86;21529;-70
2023/10/17 04:34:47;;;;;;;5.08;2.50;;;;;;;6.19;85.98;100542.13;1663368;86;21679;-69
2023/10/17 04:37:37;;;;;;;5.33;2.35;;;;;;;6.19;85.71;100539.92;1697844;84;21058;-70
2023/10/17 04:39:50;;;;;;;4.83;2.47;;;;;;;6.20;85.54;100548.42;1668396;84;21032;-69
2023/10/17 04:42:47;;;;;;;7.70;2.60;;;;;;;6.20;85.41;100546.55;1697977;84;21083;-69
2023/10/17 04:45:05;;;;;;;4.72;2.50;;;;;;;6.24;85.40;100564.77;1663930;86;21079;-69
2023/10/17 04:47:28;;;;;;;5.15;2.45;;;;;;;6.25;85.20;100563.23;1697029;84;21467;-70
2023/10/17 04:49:57;;;;;;;5.25;2.60;;;;;;;6.25;84.93;100569.19;1666709;85;21480;-69
2023/10/17 04:52:40;;;;;;;4.12;2.27;;;;;;;6.22;84.80;100565.44;1697931;83;21066;-68
2023/10/17 05:03:14;;;;;;;6.95;2.72;;;;;;;6.27;84.13;100573.95;1697986;84;21054;-71
2023/10/17 05:08:21;;;;;;;3.33;2.00;;;;;;;6.21;83.49;100580.06;1700599;84;21555;-75
2023/10/17 06:17:55;;;;;;;5.05;2.42;;;;;;;6.49;79.39;100661.79;1636523;88;21063;-69
2023/10/17 06:23:24;;;;;;;4.00;2.37;;;;;;;6.59;79.25;100657.59;1633243;88;21087;-69
2023/10/17 06:26:06;;;;;;;4.22;3.08;;;;;;;6.62;78.85;100664.92;1636676;86;21109;-69
2023/10/17 06:28:35;;;;;;;5.03;2.87;;;;;;;6.62;78.77;100662.20;1605399;88;21099;-70
2023/10/17 06:34:00;;;;;;;5.83;2.70;;;;;;;6.64;78.85;100673.78;1633139;88;21047;-69
2023/10/17 06:36:30;;;;;;;8.38;2.65;;;;;;;6.71;78.91;100671.75;1633305;86;21067;-70
2023/10/17 06:39:12;;;;;;;4.75;2.58;;;;;;;6.76;78.86;100677.55;1605903;89;21577;-69
2023/10/17 06:41:39;;;;;;;11.50;2.95;;;;;;;6.81;78.85;100680.63;1632252;86;21067;-71
2023/10/17 06:44:10;;;;;;;;;;;;;;;6.87;78.78;100684.05;1608326;89;21124;-70
2023/10/17 06:46:55;;;;;;;6.08;2.85;;;;;;;6.91;78.61;100679.97;1660858;86;20171;-71
2023/10/17 06:49:46;;;;;;;7.80;2.60;;;;;;;6.96;78.40;100682.53;1633374;88;21123;-70
2023/10/17 06:54:45;;;;;;;6.50;2.83;;;;;;;7.00;77.56;100684.41;1672825;86;21449;-70
2023/10/17 06:57:19;;;;;;;5.92;3.05;;;;;;;7.00;77.09;100683.05;1633253;88;21115;-70
2023/10/17 07:00:01;;;;;;;6.42;2.80;;;;;;;7.04;76.77;100686.29;1633398;86;21070;-70
2023/10/17 07:14:41;;;;;;;4.92;2.30;;;;;;;7.71;72.75;100694.69;1803077;78;28098;-71
2023/10/17 07:17:39;;;;;;;4.97;2.10;;;;;;;7.64;71.09;100711.40;1774511;81;21122;-69
2023/10/17 07:20:12;;;;;;;7.53;3.58;;;;;;;7.53;70.23;100713.95;1774742;80;21123;-70
2023/10/17 07:22:35;;;;;;;5.03;2.25;;;;;;;7.47;70.14;100706.97;1774803;80;21142;-70
2023/10/17 07:25:16;;;;;;;5.30;2.10;;;;;;;7.46;70.39;100717.53;1774573;81;21102;-70
2023/10/17 07:27:38;;;;;;;4.10;1.77;;;;;;;7.49;70.44;100715.83;1774556;80;21095;-70
2023/10/17 07:30:35;;;;;;;3.27;1.67;;;;;;;7.48;69.08;100719.07;1728452;81;21158;-71
2023/10/17 07:32:59;;;;;;;4.97;1.80;;;;;;;7.47;69.26;100716.52;1774604;80;21643;-69
2023/10/17 07:35:30;;;;;;;5.67;2.12;;;;;;;7.52;68.74;100719.07;1774461;80;21130;-68
2023/10/17 07:38:00;;;;;;;7.72;1.85;;;;;;;7.57;68.65;100723.50;1774436;81;21189;-70
2023/10/17 07:40:42;;;;;;;5.87;1.75;;;;;;;7.62;68.04;100728.44;1774634;80;21162;-70
2023/10/17 07:43:07;;;;;;;4.58;2.05;;;;;;;7.69;66.49;100734.06;1774393;80;21099;-70
2023/10/17 07:45:40;;;;;;;2.52;1.45;;;;;;;7.70;66.29;100733.89;1774555;80;21118;-71
2023/10/17 07:48:25;;;;;;;2.77;1.55;;;;;;;7.73;66.01;100731.34;1774563;80;21111;-70
2023/10/17 07:50:57;;;;;;;6.60;1.87;;;;;;;7.75;65.71;100736.11;1758808;80;21129;-71
2023/10/17 07:53:32;;;;;;;3.65;1.40;;;;;;;7.73;65.50;100736.28;1728791;81;21767;-68
2023/10/17 07:56:06;;;;;;;4.85;1.40;;;;;;;7.86;65.56;100742.10;1771331;81;21095;-69
2023/10/17 07:58:45;;;;;;;2.45;1.40;;;;;;;8.17;65.67;100738.64;1760591;81;21122;-70
2023/10/17 08:01:15;;;;;;;2.95;1.77;;;;;;;8.41;64.08;100745.44;1720376;83;21161;-71
2023/10/17 08:03:54;;;;;;;2.52;1.50;;;;;;;8.44;63.32;100745.08;1720442;83;21106;-73
2023/10/17 08:06:23;;;;;;;4.05;1.40;;;;;;;8.44;66.30;100752.42;1720192;83;21593;-72
2023/10/17 08:08:58;;;;;;;3.60;1.92;;;;;;;8.47;64.56;100755.69;1757037;81;21142;-72
2023/10/17 08:11:36;;;;;;;3.67;1.45;;;;;;;8.44;63.87;100753.28;1742285;82;21162;-72
2023/10/17 08:14:09;;;;;;;6.12;1.70;;;;;;;8.48;63.48;100748.34;1746712;82;21134;-72
2023/10/17 08:16:39;;;;;;;3.92;1.75;;;;;;;8.58;63.26;100754.45;1749092;82;21174;-69
2023/10/17 08:19:22;;;;;;;7.70;2.58;;;;;;;8.67;63.15;100755.27;1749206;82;21617;-69
2023/10/17 08:27:13;;;;;;;4.12;1.72;;;;;;;8.77;61.78;100752.67;1782148;80;21900;-69
2023/10/17 08:29:43;;;;;;;5.30;1.60;;;;;;;8.75;61.75;100752.51;1781941;80;21153;-69
2023/10/17 08:34:45;;;;;;;4.00;1.70;;;;;;;8.80;60.83;100755.56;1782065;80;21580;-69
2023/10/17 08:37:26;;;;;;;4.25;1.60;;;;;;;8.78;60.23;100747.55;1782090;80;21177;-69
2023/10/17 08:42:56;;;;;;;5.00;1.90;;;;;;;8.72;59.68;100747.41;1782189;80;21130;-69
2023/10/17 08:45:04;;;;;;;5.08;1.87;;;;;;;8.65;59.58;100744.53;1773743;80;21111;-69
2023/10/17 08:47:30;;;;;;;4.30;1.95;;;;;;;8.64;59.92;100747.44;1781738;80;21601;-72
2023/10/17 08:50:08;;;;;;;4.28;2.30;;;;;;;8.71;60.17;100746.55;1782096;80;21595;-70
2023/10/17 08:52:37;;;;;;;4.78;2.08;;;;;;;8.79;60.24;100742.41;1781300;80;21083;-69
2023/10/17 08:55:07;;;;;;;4.15;1.75;;;;;;;8.94;60.36;100749.86;1782163;80;21201;-71
2023/10/17 08:57:37;;;;;;;4.60;3.58;;;;;;;9.07;60.34;100744.66;1781804;80;21150;-72
2023/10/17 09:02:48;;;;;;;4.12;1.10;;;;;;;9.33;59.32;100756.67;1738467;82;21121;-72
2023/10/17 09:05:26;;;;;;;5.08;1.67;;;;;;;9.34;58.25;100748.80;1738335;82;21166;-73
2023/10/17 09:07:55;;;;;;;3.75;1.90;;;;;;;9.33;58.07;100752.05;1738836;79;21162;-79
2023/10/17 09:10:36;;;;;;;2.05;1.30;;;;;;;9.35;58.23;100751.87;1745523;82;21731;-79
2023/10/17 09:15:56;;;;;;;6.12;1.60;;;;;;;9.39;56.90;100750.47;1742700;82;21603;-78
2023/10/17 09:18:29;;;;;;;6.22;1.62;;;;;;;9.35;56.37;100752.72;1748713;82;21676;-80
2023/10/17 09:21:03;;;;;;;4.37;1.87;;;;;;;9.28;56.49;100748.16;1715101;84;21135;-79
2023/10/17 09:23:32;;;;;;;2.17;1.50;;;;;;;9.24;56.45;100744.08;1763508;81;21630;-76
2023/10/17 09:26:07;;;;;;;6.15;1.87;;;;;;;9.21;56.72;100746.14;1724744;83;21678;-79
2023/10/17 09:28:34;;;;;;;3.55;1.50;;;;;;;9.21;56.48;100737.94;1724282;83;21214;-76
2023/10/17 09:31:06;;;;;;;4.45;1.57;;;;;;;9.22;56.62;100737.42;1757026;82;21166;-80
2023/10/17 09:33:48;;;;;;;2.87;1.30;;;;;;;9.32;57.33;100744.03;1756841;82;21126;-80
2023/10/17 09:36:19;;;;;;;4.03;1.37;;;;;;;9.41;56.16;100739.69;1756605;82;21149;-77
2023/10/17 09:38:48;;;;;;;1.80;1.17;;;;;;;9.44;55.29;100748.05;1757326;82;21174;-79
2023/10/17 09:41:17;;;;;;;4.08;1.98;;;;;;;9.41;55.19;100738.84;1757066;82;21157;-78
2023/10/17 09:43:53;;;;;;;3.27;1.42;;;;;;;9.39;55.47;100739.53;1756855;82;21142;-77
2023/10/17 09:46:28;;;;;;;2.87;1.60;;;;;;;9.44;55.79;100741.20;1733197;83;21569;-74
2023/10/17 09:49:00;;;;;;;3.37;1.37;;;;;;;9.48;55.20;100738.44;1733207;83;21214;-77
2023/10/17 09:51:35;;;;;;;3.10;1.20;;;;;;;9.49;54.71;100733.30;1733305;83;21106;-76
2023/10/17 09:54:04;;;;;;;3.98;1.98;;;;;;;9.55;54.07;100728.47;1733350;83;21553;-80
2023/10/17 09:56:42;;;;;;;2.65;1.25;;;;;;;9.61;53.92;100726.88;1733453;83;21193;-79
2023/10/17 09:59:16;;;;;;;4.62;1.30;;;;;;;9.65;52.84;100731.80;1733614;83;21161;-79
2023/10/17 10:01:46;;;;;;;2.58;1.15;;;;;;;9.65;52.18;100719.49;1733608;83;21599;-78
2023/10/17 10:04:18;;;;;;;2.60;1.00;;;;;;;9.67;52.03;100728.89;1733273;83;21134;-79
2023/10/17 10:06:48;;;;;;;4.00;1.05;;;;;;;9.65;52.28;100722.75;1684999;81;21141;-81
2023/10/17 10:09:26;;;;;;;4.55;1.22;;;;;;;9.66;52.82;100716.23;1729854;83;21157;-81
2023/10/17 10:11:58;;;;;;;2.58;1.00;;;;;;;9.70;52.56;100717.58;1725897;83;21153;-79
2023/10/17 10:14:36;;;;;;;2.00;1.25;;;;;;;9.69;52.46;100715.88;1725824;83;21201;-80
2023/10/17 10:17:05;;;;;;;2.62;1.02;;;;;;;9.69;52.49;100718.61;1719023;83;21158;-83
2023/10/17 10:19:49;;;;;;;1.90;1.00;;;;;;;9.71;52.64;100711.91;1718920;83;21142;-78
2023/10/17 10:22:18;;;;;;;3.65;1.42;;;;;;;9.74;53.09;100716.17;1722780;83;21162;-79
2023/10/17 10:24:47;;;;;;;3.98;1.17;;;;;;;9.82;52.24;100725.70;1722913;83;21143;-73
2023/10/17 10:27:24;;;;;;;2.42;1.10;;;;;;;9.88;51.06;100722.23;1722694;83;21118;-76
2023/10/17 10:30:18;;;;;;;2.30;1.22;;;;;;;9.89;50.69;100721.19;1722596;83;21173;-75
2023/10/17 10:32:46;;;;;;;3.40;1.27;;;;;;;9.89;50.90;100721.19;1698512;84;21173;-74
2023/10/17 10:35:15;;;;;;;3.58;1.02;;;;;;;9.86;50.82;100725.67;1675573;84;21656;-73
2023/10/17 10:37:50;;;;;;;4.17;1.98;;;;;;;9.85;50.55;100722.59;1707945;83;21173;-75
2023/10/17 10:40:24;;;;;;;3.47;1.30;;;;;;;9.88;50.30;100727.70;1722536;83;21162;-74
2023/10/17 10:42:57;;;;;;;4.10;1.50;;;;;;;9.89;50.46;100718.45;1722620;83;21205;-73
2023/10/17 10:45:42;;;;;;;4.22;1.10;;;;;;;9.88;50.60;100724.97;1722639;83;21134;-76
2023/10/17 10:48:14;;;;;;;3.02;1.27;;;;;;;9.93;51.43;100718.94;1722329;83;21686;-76
2023/10/17 10:50:46;;;;;;;2.62;1.15;;;;;;;9.99;50.51;100727.25;1722957;83;21225;-75
2023/10/17 10:53:29;;;;;;;3.00;1.37;;;;;;;10.02;48.80;100717.81;1722631;83;21130;-76
2023/10/17 10:56:13;;;;;;;3.77;1.12;;;;;;;10.03;48.61;100721.73;1722547;83;21111;-75
2023/10/17 10:58:51;;;;;;;3.27;1.00;;;;;;;10.02;47.53;100710.97;1722628;83;21123;-75
2023/10/17 11:01:19;;;;;;;2.08;1.40;;;;;;;9.94;46.75;100716.53;1722946;83;21158;-74
2023/10/17 11:03:50;;;;;;;1.90;0.95;;;;;;;9.89;46.47;100721.71;1722621;83;21161;-74
2023/10/17 11:06:27;;;;;;;2.00;1.00;;;;;;;9.84;45.60;100719.53;1722663;83;21102;-74
2023/10/17 11:08:56;;;;;;;2.92;1.10;;;;;;;9.78;45.38;100715.64;1718451;83;21115;-75
2023/10/17 11:11:25;;;;;;;2.85;1.00;;;;;;;9.70;45.73;100715.69;1708140;83;21183;-73
2023/10/17 11:13:57;;;;;;;2.52;1.22;;;;;;;9.65;46.43;100714.02;1708313;84;21167;-78
2023/10/17 11:16:26;;;;;;;1.55;0.90;;;;;;;9.63;46.57;100703.78;1708413;84;21131;-75
2023/10/17 11:18:56;;;;;;;3.42;1.20;;;;;;;9.67;46.96;100709.73;1708530;84;21131;-75
2023/10/17 11:21:24;;;;;;;3.42;1.07;;;;;;;9.73;47.21;100703.52;1708337;84;21610;-76
2023/10/17 11:24:04;;;;;;;3.52;1.10;;;;;;;9.79;46.33;100708.28;1708446;84;21151;-72
2023/10/17 11:26:32;;;;;;;2.40;0.93;;;;;;;9.83;45.99;100703.62;1707927;83;21174;-75
2023/10/17 11:29:06;;;;;;;1.95;0.90;;;;;;;9.87;44.39;100709.58;1709302;84;21610;-75
2023/10/17 11:31:34;;;;;;;1.90;0.93;;;;;;;9.87;43.80;100707.36;1666568;84;21143;-81
2023/10/17 11:34:16;;;;;;;2.92;1.20;;;;;;;9.83;43.74;100705.00;1708252;84;21747;-76
2023/10/17 11:36:47;;;;;;;3.58;1.05;;;;;;;9.83;43.97;100707.73;1708566;84;21139;-77
2023/10/17 11:39:16;;;;;;;2.08;1.12;;;;;;;9.83;44.50;100717.31;1708476;84;21135;-79
2023/10/17 11:41:55;;;;;;;2.05;0.90;;;;;;;9.83;44.11;100719.20;1708336;84;21253;-77
2023/10/17 11:44:27;;;;;;;2.02;1.05;;;;;;;9.81;44.79;100718.02;1708245;84;21131;-76
2023/10/17 11:47:03;;;;;;;4.62;2.25;;;;;;;9.82;44.04;100716.98;1708478;84;21186;-68
2023/10/17 11:49:39;;;;;;;3.77;1.60;;;;;;;9.80;43.57;100719.05;1708347;84;21139;-78
2023/10/17 11:52:13;;;;;;;6.33;2.08;;;;;;;9.79;44.55;100714.61;1711726;84;21606;-78
2023/10/17 11:55:11;;;;;;;6.62;1.85;;;;;;;9.81;43.41;100713.06;1708677;84;21188;-78
2023/10/17 11:57:36;;;;;;;3.33;1.10;;;;;;;9.82;43.84;100716.98;1707964;84;21578;-79
2023/10/17 12:02:48;;;;;;;7.35;1.35;;;;;;;9.90;42.67;100716.56;1708561;84;21131;-82
2023/10/17 12:05:18;;;;;;;1.72;1.15;;;;;;;9.89;42.50;100711.61;1708480;83;21199;-79
2023/10/17 12:07:53;;;;;;;2.67;1.37;;;;;;;9.90;42.30;100709.20;1708285;84;21751;-80
2023/10/17 12:10:22;;;;;;;3.72;1.55;;;;;;;9.91;42.27;100723.74;1708431;83;21202;-82
2023/10/17 12:12:59;;;;;;;4.70;1.70;;;;;;;9.92;42.70;100719.45;1708580;84;21135;-75
2023/10/17 12:15:29;;;;;;;2.98;1.25;;;;;;;9.93;42.74;100725.78;1708503;84;21119;-78
2023/10/17 12:17:57;;;;;;;7.62;1.50;;;;;;;9.88;42.50;100722.23;1708217;83;21126;-78
2023/10/17 12:20:27;;;;;;;3.40;1.52;;;;;;;9.82;42.82;100715.61;1681477;85;21232;-81
2023/10/17 12:22:56;;;;;;;3.15;1.50;;;;;;;9.81;42.95;100722.12;1694510;84;21138;-80
2023/10/17 12:25:25;;;;;;;4.45;1.50;;;;;;;9.82;42.96;100715.61;1685640;85;21182;-78
2023/10/17 12:27:56;;;;;;;6.70;3.27;;;;;;;9.84;43.22;100708.06;1693427;85;21152;-79
2023/10/17 12:30:27;;;;;;;3.90;2.02;;;;;;;9.89;43.53;100708.88;1685629;85;21225;-77
2023/10/17 12:32:55;;;;;;;9.83;2.90;;;;;;;9.94;43.16;100696.84;1693791;85;21197;-79
2023/10/17 12:35:27;;;;;;;6.40;2.20;;;;;;;9.97;43.31;100707.42;1685650;85;21154;-80
2023/10/17 12:38:14;;;;;;;2.87;1.40;;;;;;;10.00;43.51;100707.05;1693655;85;21415;-80
2023/10/17 12:40:38;;;;;;;2.20;1.10;;;;;;;10.04;43.27;100706.16;1684905;85;21707;-79
2023/10/17 12:43:11;;;;;;;3.47;1.40;;;;;;;10.02;42.91;100707.72;1693656;83;21190;-79
2023/10/17 12:45:41;;;;;;;3.30;1.02;;;;;;;9.99;43.17;100710.83;1685599;85;21155;-78
2023/10/17 12:48:11;;;;;;;2.22;1.02;;;;;;;9.97;43.23;100712.91;1693869;85;21165;-80
2023/10/17 12:50:46;;;;;;;4.05;1.35;;;;;;;9.95;43.63;100709.50;1685696;85;21261;-77
2023/10/17 12:53:16;;;;;;;3.27;1.02;;;;;;;9.96;45.20;100710.34;1695193;84;21221;-78
2023/10/17 12:55:44;;;;;;;2.90;1.10;;;;;;;10.02;45.00;100715.93;1686209;85;21177;-80
2023/10/17 12:58:18;;;;;;;2.75;1.17;;;;;;;10.09;44.29;100716.03;1694089;83;21628;-79
2023/10/17 13:00:46;;;;;;;2.70;1.15;;;;;;;10.15;43.86;100713.40;1671725;85;21161;-81
2023/10/17 13:03:15;;;;;;;1.62;0.80;;;;;;;10.22;43.49;100716.78;1679222;84;21178;-81
2023/10/17 13:05:50;;;;;;;5.42;1.40;;;;;;;10.23;43.06;100709.75;1693916;84;21169;-79
2023/10/17 13:08:23;;;;;;;1.70;0.90;;;;;;;10.22;43.47;100716.27;1685682;85;21182;-81
2023/10/17 13:10:55;;;;;;;2.02;0.90;;;;;;;10.22;43.53;100714.05;1731226;82;21119;-80
2023/10/17 13:13:25;;;;;;;4.87;1.00;;;;;;;10.20;44.03;100722.45;1720111;83;21587;-82
2023/10/17 13:15:57;;;;;;;2.70;0.90;;;;;;;10.23;44.29;100717.97;1720060;83;21127;-80
2023/10/17 13:18:28;;;;;;;5.60;1.02;;;;;;;10.25;44.59;100710.41;1720647;83;21148;-81
2023/10/17 13:21:12;;;;;;;4.28;1.67;;;;;;;10.27;44.26;100715.19;1724398;83;21115;-77
2023/10/17 13:23:37;;;;;;;2.05;0.78;;;;;;;10.29;44.64;100714.48;1695099;83;21130;-79
2023/10/17 13:26:13;;;;;;;2.85;1.90;;;;;;;10.34;44.26;100710.66;1724604;82;21123;-79
2023/10/17 13:28:42;;;;;;;4.87;1.27;;;;;;;10.37;44.04;100707.53;1724580;83;21154;-79
2023/10/17 13:31:18;;;;;;;3.27;0.95;;;;;;;10.42;44.19;100718.81;1724399;83;21296;-80
2023/10/17 13:33:55;;;;;;;1.12;0.80;;;;;;;10.45;44.12;100723.91;1724530;83;21600;-79
2023/10/17 13:36:20;;;;;;;2.00;0.80;;;;;;;10.47;44.00;100723.72;1723777;83;21293;-80
2023/10/17 13:38:49;;;;;;;3.22;1.10;;;;;;;10.44;43.81;100715.36;1724574;82;21562;-80
2023/10/17 13:41:18;;;;;;;2.20;0.95;;;;;;;10.38;43.54;100713.34;1724490;83;21208;-78
2023/10/17 13:43:47;;;;;;;3.30;1.00;;;;;;;10.35;44.08;100712.35;1724517;83;21440;-77
2023/10/17 13:46:17;;;;;;;4.97;1.50;;;;;;;10.35;44.13;100710.13;1724577;83;21150;-79
2023/10/17 13:48:51;;;;;;;3.40;1.87;;;;;;;10.36;44.64;100709.09;1724593;83;21817;-78
2023/10/17 13:51:23;;;;;;;3.45;1.32;;;;;;;10.37;44.48;100710.27;1724513;83;21166;-77
2023/10/17 13:53:53;;;;;;;5.80;1.35;;;;;;;10.37;43.69;100705.31;1724296;83;21170;-78
2023/10/17 13:56:22;;;;;;;2.60;1.27;;;;;;;10.36;43.85;100707.20;1724445;82;21126;-76
2023/10/17 13:58:51;;;;;;;5.33;1.22;;;;;;;10.37;43.58;100709.42;1724466;83;21122;-76
2023/10/17 14:01:32;;;;;;;3.02;1.05;;;;;;;10.38;43.77;100699.64;1724543;83;21154;-73
2023/10/17 14:04:02;;;;;;;2.37;0.88;;;;;;;10.41;43.59;100703.41;1724430;83;22199;-76
2023/10/17 14:06:38;;;;;;;3.72;1.05;;;;;;;10.42;43.28;100705.11;1724388;82;21197;-74
2023/10/17 14:09:17;;;;;;;4.60;3.00;;;;;;;10.40;43.25;100707.19;1724470;83;21264;-75
2023/10/17 14:11:47;;;;;;;1.92;0.90;;;;;;;10.36;43.40;100705.83;1709292;83;21570;-75
2023/10/17 14:14:18;;;;;;;5.03;1.65;;;;;;;10.32;43.42;100698.19;1709341;84;21119;-77